sensor_id;sensor_type;location;lat;lon;timestamp;P1;durP1;ratioP1;P2;durP2;ratioP2
23119;SDS011;11729;50.836;4.330;2022-08-03T00:00:39;10.35;;;5.72;;
23119;SDS011;11729;50.836;4.330;2022-08-03T00:03:07;9.10;;;5.15;;
23119;SDS011;11729;50.836;4.330;2022-08-03T00:05:33;10.93;;;5.22;;
23119;SDS011;11729;50.836;4.330;2022-08-03T00:07:59;9.30;;;5.10;;
23119;SDS011;11729;50.836;4.330;2022-08-03T00:10:25;13.48;;;4.90;;
23119;SDS011;11729;50.836;4.330;2022-08-03T00:12:51;9.18;;;5.20;;
23119;SDS011;11729;50.836;4.330;2022-08-03T00:15:17;5.50;;;4.95;;
23119;SDS011;11729;50.836;4.330;2022-08-03T00:17:43;8.23;;;5.15;;
23119;SDS011;11729;50.836;4.330;2022-08-03T00:20:09;7.55;;;5.32;;
23119;SDS011;11729;50.836;4.330;2022-08-03T00:22:35;10.93;;;5.70;;
23119;SDS011;11729;50.836;4.330;2022-08-03T00:25:01;9.98;;;6.05;;
23119;SDS011;11729;50.836;4.330;2022-08-03T00:27:27;8.82;;;5.70;;
23119;SDS011;11729;50.836;4.330;2022-08-03T00:29:53;11.25;;;6.38;;
23119;SDS011;11729;50.836;4.330;2022-08-03T00:32:18;9.32;;;6.68;;
23119;SDS011;11729;50.836;4.330;2022-08-03T00:34:44;15.40;;;6.78;;
23119;SDS011;11729;50.836;4.330;2022-08-03T00:37:09;7.53;;;6.22;;
23119;SDS011;11729;50.836;4.330;2022-08-03T00:39:36;13.55;;;5.70;;
23119;SDS011;11729;50.836;4.330;2022-08-03T00:42:04;9.40;;;5.38;;
23119;SDS011;11729;50.836;4.330;2022-08-03T00:44:30;5.53;;;4.88;;
23119;SDS011;11729;50.836;4.330;2022-08-03T00:47:02;7.95;;;5.10;;
23119;SDS011;11729;50.836;4.330;2022-08-03T00:49:28;8.88;;;5.20;;
23119;SDS011;11729;50.836;4.330;2022-08-03T00:51:53;8.20;;;5.22;;
23119;SDS011;11729;50.836;4.330;2022-08-03T00:54:20;11.75;;;5.15;;
23119;SDS011;11729;50.836;4.330;2022-08-03T00:56:46;9.75;;;5.20;;
23119;SDS011;11729;50.836;4.330;2022-08-03T00:59:11;8.57;;;4.88;;
23119;SDS011;11729;50.836;4.330;2022-08-03T01:01:38;8.83;;;4.80;;
23119;SDS011;11729;50.836;4.330;2022-08-03T01:04:04;9.85;;;5.30;;
23119;SDS011;11729;50.836;4.330;2022-08-03T01:06:33;9.40;;;5.20;;
23119;SDS011;11729;50.836;4.330;2022-08-03T01:09:08;6.97;;;5.13;;
23119;SDS011;11729;50.836;4.330;2022-08-03T01:11:58;9.07;;;5.10;;
23119;SDS011;11729;50.836;4.330;2022-08-03T01:14:46;7.38;;;5.20;;
23119;SDS011;11729;50.836;4.330;2022-08-03T01:20:21;11.00;;;5.13;;
23119;SDS011;11729;50.836;4.330;2022-08-03T01:28:16;13.85;;;5.10;;
23119;SDS011;11729;50.836;4.330;2022-08-03T01:30:53;9.48;;;5.10;;
23119;SDS011;11729;50.836;4.330;2022-08-03T01:33:27;13.07;;;5.40;;
23119;SDS011;11729;50.836;4.330;2022-08-03T01:36:02;10.95;;;5.40;;
23119;SDS011;11729;50.836;4.330;2022-08-03T01:38:32;12.75;;;5.25;;
23119;SDS011;11729;50.836;4.330;2022-08-03T01:41:07;8.10;;;4.75;;
23119;SDS011;11729;50.836;4.330;2022-08-03T01:43:36;9.20;;;5.53;;
23119;SDS011;11729;50.836;4.330;2022-08-03T01:46:04;8.52;;;5.18;;
23119;SDS011;11729;50.836;4.330;2022-08-03T01:48:38;11.55;;;5.50;;
23119;SDS011;11729;50.836;4.330;2022-08-03T01:51:07;11.65;;;5.40;;
23119;SDS011;11729;50.836;4.330;2022-08-03T01:53:34;11.68;;;5.32;;
23119;SDS011;11729;50.836;4.330;2022-08-03T01:56:06;9.57;;;5.30;;
23119;SDS011;11729;50.836;4.330;2022-08-03T01:58:33;12.50;;;5.40;;
23119;SDS011;11729;50.836;4.330;2022-08-03T02:01:01;10.43;;;5.47;;
23119;SDS011;11729;50.836;4.330;2022-08-03T02:03:27;12.35;;;5.80;;
23119;SDS011;11729;50.836;4.330;2022-08-03T02:05:54;12.93;;;5.20;;
23119;SDS011;11729;50.836;4.330;2022-08-03T02:08:21;11.90;;;5.20;;
23119;SDS011;11729;50.836;4.330;2022-08-03T02:10:48;10.82;;;5.68;;
23119;SDS011;11729;50.836;4.330;2022-08-03T02:13:15;10.60;;;5.20;;
23119;SDS011;11729;50.836;4.330;2022-08-03T02:15:43;10.60;;;6.00;;
23119;SDS011;11729;50.836;4.330;2022-08-03T02:18:10;13.48;;;5.97;;
23119;SDS011;11729;50.836;4.330;2022-08-03T02:20:37;8.68;;;5.40;;
23119;SDS011;11729;50.836;4.330;2022-08-03T02:23:03;8.85;;;5.45;;
23119;SDS011;11729;50.836;4.330;2022-08-03T02:25:31;11.95;;;5.47;;
23119;SDS011;11729;50.836;4.330;2022-08-03T02:30:33;9.20;;;5.43;;
23119;SDS011;11729;50.836;4.330;2022-08-03T02:33:04;7.82;;;5.60;;
23119;SDS011;11729;50.836;4.330;2022-08-03T02:35:34;10.05;;;5.43;;
23119;SDS011;11729;50.836;4.330;2022-08-03T02:38:03;11.32;;;5.38;;
23119;SDS011;11729;50.836;4.330;2022-08-03T02:40:31;14.68;;;6.05;;
23119;SDS011;11729;50.836;4.330;2022-08-03T02:43:05;12.48;;;6.30;;
23119;SDS011;11729;50.836;4.330;2022-08-03T02:45:34;13.95;;;5.32;;
23119;SDS011;11729;50.836;4.330;2022-08-03T02:48:03;11.95;;;5.78;;
23119;SDS011;11729;50.836;4.330;2022-08-03T02:50:30;8.57;;;5.75;;
23119;SDS011;11729;50.836;4.330;2022-08-03T02:52:59;9.93;;;5.50;;
23119;SDS011;11729;50.836;4.330;2022-08-03T02:55:26;8.85;;;5.60;;
23119;SDS011;11729;50.836;4.330;2022-08-03T02:57:53;9.27;;;5.38;;
23119;SDS011;11729;50.836;4.330;2022-08-03T03:00:20;8.00;;;5.30;;
23119;SDS011;11729;50.836;4.330;2022-08-03T03:02:46;7.75;;;5.30;;
23119;SDS011;11729;50.836;4.330;2022-08-03T03:05:12;13.20;;;5.80;;
23119;SDS011;11729;50.836;4.330;2022-08-03T03:07:39;12.63;;;5.20;;
23119;SDS011;11729;50.836;4.330;2022-08-03T03:10:06;8.18;;;5.15;;
23119;SDS011;11729;50.836;4.330;2022-08-03T03:12:34;11.45;;;5.53;;
23119;SDS011;11729;50.836;4.330;2022-08-03T03:15:01;6.38;;;5.15;;
23119;SDS011;11729;50.836;4.330;2022-08-03T03:17:27;8.10;;;5.28;;
23119;SDS011;11729;50.836;4.330;2022-08-03T03:19:54;10.63;;;6.07;;
23119;SDS011;11729;50.836;4.330;2022-08-03T03:22:21;6.95;;;5.00;;
23119;SDS011;11729;50.836;4.330;2022-08-03T03:24:48;9.77;;;5.22;;
23119;SDS011;11729;50.836;4.330;2022-08-03T03:27:15;9.95;;;5.28;;
23119;SDS011;11729;50.836;4.330;2022-08-03T03:29:42;5.55;;;5.05;;
23119;SDS011;11729;50.836;4.330;2022-08-03T03:32:08;8.43;;;5.00;;
23119;SDS011;11729;50.836;4.330;2022-08-03T03:34:34;13.40;;;5.60;;
23119;SDS011;11729;50.836;4.330;2022-08-03T03:37:01;10.15;;;5.20;;
23119;SDS011;11729;50.836;4.330;2022-08-03T03:39:26;11.60;;;5.30;;
23119;SDS011;11729;50.836;4.330;2022-08-03T03:41:52;6.47;;;5.50;;
23119;SDS011;11729;50.836;4.330;2022-08-03T03:44:18;11.70;;;5.57;;
23119;SDS011;11729;50.836;4.330;2022-08-03T03:46:44;11.80;;;5.40;;
23119;SDS011;11729;50.836;4.330;2022-08-03T03:49:10;10.55;;;5.22;;
23119;SDS011;11729;50.836;4.330;2022-08-03T03:51:35;10.50;;;5.28;;
23119;SDS011;11729;50.836;4.330;2022-08-03T03:54:02;8.20;;;5.10;;
23119;SDS011;11729;50.836;4.330;2022-08-03T03:56:31;14.35;;;5.68;;
23119;SDS011;11729;50.836;4.330;2022-08-03T03:58:57;16.67;;;6.00;;
23119;SDS011;11729;50.836;4.330;2022-08-03T04:01:22;15.55;;;5.60;;
23119;SDS011;11729;50.836;4.330;2022-08-03T04:03:48;13.43;;;5.68;;
23119;SDS011;11729;50.836;4.330;2022-08-03T04:06:13;19.83;;;5.45;;
23119;SDS011;11729;50.836;4.330;2022-08-03T04:08:58;16.30;;;5.63;;
23119;SDS011;11729;50.836;4.330;2022-08-03T04:11:25;12.73;;;5.90;;
23119;SDS011;11729;50.836;4.330;2022-08-03T04:13:54;13.77;;;5.93;;
23119;SDS011;11729;50.836;4.330;2022-08-03T04:16:40;14.98;;;5.82;;
23119;SDS011;11729;50.836;4.330;2022-08-03T04:19:17;10.57;;;5.97;;
23119;SDS011;11729;50.836;4.330;2022-08-03T04:22:05;20.00;;;6.00;;
23119;SDS011;11729;50.836;4.330;2022-08-03T04:24:34;14.50;;;6.00;;
23119;SDS011;11729;50.836;4.330;2022-08-03T04:27:08;10.65;;;5.40;;
23119;SDS011;11729;50.836;4.330;2022-08-03T04:29:37;19.23;;;5.57;;
23119;SDS011;11729;50.836;4.330;2022-08-03T04:32:05;13.35;;;6.25;;
23119;SDS011;11729;50.836;4.330;2022-08-03T04:34:33;17.00;;;6.28;;
23119;SDS011;11729;50.836;4.330;2022-08-03T04:37:01;19.00;;;6.05;;
23119;SDS011;11729;50.836;4.330;2022-08-03T04:39:31;12.23;;;5.95;;
23119;SDS011;11729;50.836;4.330;2022-08-03T04:41:57;16.92;;;5.90;;
23119;SDS011;11729;50.836;4.330;2022-08-03T04:44:26;14.93;;;6.43;;
23119;SDS011;11729;50.836;4.330;2022-08-03T04:46:53;23.25;;;6.30;;
23119;SDS011;11729;50.836;4.330;2022-08-03T04:49:20;21.55;;;7.18;;
23119;SDS011;11729;50.836;4.330;2022-08-03T04:51:46;16.35;;;6.43;;
23119;SDS011;11729;50.836;4.330;2022-08-03T04:54:13;18.73;;;6.78;;
23119;SDS011;11729;50.836;4.330;2022-08-03T04:56:42;25.90;;;6.65;;
23119;SDS011;11729;50.836;4.330;2022-08-03T04:59:08;18.33;;;6.40;;
23119;SDS011;11729;50.836;4.330;2022-08-03T05:01:35;19.20;;;6.80;;
23119;SDS011;11729;50.836;4.330;2022-08-03T05:04:01;19.80;;;6.38;;
23119;SDS011;11729;50.836;4.330;2022-08-03T05:06:27;17.08;;;6.50;;
23119;SDS011;11729;50.836;4.330;2022-08-03T05:08:53;13.40;;;6.03;;
23119;SDS011;11729;50.836;4.330;2022-08-03T05:11:19;15.82;;;6.57;;
23119;SDS011;11729;50.836;4.330;2022-08-03T05:13:44;18.10;;;6.40;;
23119;SDS011;11729;50.836;4.330;2022-08-03T05:16:11;16.00;;;6.18;;
23119;SDS011;11729;50.836;4.330;2022-08-03T05:18:39;24.80;;;6.53;;
23119;SDS011;11729;50.836;4.330;2022-08-03T05:21:06;14.02;;;6.20;;
23119;SDS011;11729;50.836;4.330;2022-08-03T05:23:33;14.90;;;6.40;;
23119;SDS011;11729;50.836;4.330;2022-08-03T05:25:58;15.35;;;6.63;;
23119;SDS011;11729;50.836;4.330;2022-08-03T05:28:24;17.02;;;6.50;;
23119;SDS011;11729;50.836;4.330;2022-08-03T05:30:50;14.02;;;6.13;;
23119;SDS011;11729;50.836;4.330;2022-08-03T05:33:15;21.35;;;6.30;;
23119;SDS011;11729;50.836;4.330;2022-08-03T05:35:41;22.75;;;6.50;;
23119;SDS011;11729;50.836;4.330;2022-08-03T05:38:07;17.92;;;6.50;;
23119;SDS011;11729;50.836;4.330;2022-08-03T05:40:32;22.40;;;6.82;;
23119;SDS011;11729;50.836;4.330;2022-08-03T05:42:58;18.77;;;7.05;;
23119;SDS011;11729;50.836;4.330;2022-08-03T05:45:24;19.83;;;7.15;;
23119;SDS011;11729;50.836;4.330;2022-08-03T05:47:50;19.27;;;7.32;;
23119;SDS011;11729;50.836;4.330;2022-08-03T05:50:16;21.65;;;6.38;;
23119;SDS011;11729;50.836;4.330;2022-08-03T05:52:42;17.98;;;6.47;;
23119;SDS011;11729;50.836;4.330;2022-08-03T05:55:09;17.20;;;6.30;;
23119;SDS011;11729;50.836;4.330;2022-08-03T05:57:35;22.55;;;6.68;;
23119;SDS011;11729;50.836;4.330;2022-08-03T06:00:05;20.98;;;6.07;;
23119;SDS011;11729;50.836;4.330;2022-08-03T06:02:32;17.45;;;6.60;;
23119;SDS011;11729;50.836;4.330;2022-08-03T06:04:57;10.55;;;6.00;;
23119;SDS011;11729;50.836;4.330;2022-08-03T06:07:23;14.45;;;5.50;;
23119;SDS011;11729;50.836;4.330;2022-08-03T06:09:49;14.40;;;5.32;;
23119;SDS011;11729;50.836;4.330;2022-08-03T06:12:15;16.67;;;5.85;;
23119;SDS011;11729;50.836;4.330;2022-08-03T06:14:40;13.30;;;5.50;;
23119;SDS011;11729;50.836;4.330;2022-08-03T06:17:06;10.50;;;5.57;;
23119;SDS011;11729;50.836;4.330;2022-08-03T06:19:32;11.05;;;5.28;;
23119;SDS011;11729;50.836;4.330;2022-08-03T06:21:57;13.73;;;5.00;;
23119;SDS011;11729;50.836;4.330;2022-08-03T06:24:23;13.15;;;5.50;;
23119;SDS011;11729;50.836;4.330;2022-08-03T06:26:48;17.52;;;5.22;;
23119;SDS011;11729;50.836;4.330;2022-08-03T06:29:14;12.27;;;5.00;;
23119;SDS011;11729;50.836;4.330;2022-08-03T06:31:40;12.82;;;4.97;;
23119;SDS011;11729;50.836;4.330;2022-08-03T06:34:05;18.23;;;5.28;;
23119;SDS011;11729;50.836;4.330;2022-08-03T06:36:31;17.60;;;5.18;;
23119;SDS011;11729;50.836;4.330;2022-08-03T06:38:57;12.77;;;4.97;;
23119;SDS011;11729;50.836;4.330;2022-08-03T06:41:23;17.23;;;5.78;;
23119;SDS011;11729;50.836;4.330;2022-08-03T06:43:49;11.27;;;5.23;;
23119;SDS011;11729;50.836;4.330;2022-08-03T06:46:15;13.68;;;5.40;;
23119;SDS011;11729;50.836;4.330;2022-08-03T06:48:41;10.02;;;4.90;;
23119;SDS011;11729;50.836;4.330;2022-08-03T06:51:07;12.43;;;4.90;;
23119;SDS011;11729;50.836;4.330;2022-08-03T06:53:33;10.52;;;5.03;;
23119;SDS011;11729;50.836;4.330;2022-08-03T06:55:58;7.60;;;4.70;;
23119;SDS011;11729;50.836;4.330;2022-08-03T06:58:24;12.40;;;4.80;;
23119;SDS011;11729;50.836;4.330;2022-08-03T07:00:50;9.23;;;4.43;;
23119;SDS011;11729;50.836;4.330;2022-08-03T07:03:16;8.52;;;4.80;;
23119;SDS011;11729;50.836;4.330;2022-08-03T07:05:42;10.75;;;4.57;;
23119;SDS011;11729;50.836;4.330;2022-08-03T07:08:09;13.30;;;4.72;;
23119;SDS011;11729;50.836;4.330;2022-08-03T07:10:35;9.48;;;4.72;;
23119;SDS011;11729;50.836;4.330;2022-08-03T07:13:01;13.10;;;4.97;;
23119;SDS011;11729;50.836;4.330;2022-08-03T07:15:26;11.40;;;4.95;;
23119;SDS011;11729;50.836;4.330;2022-08-03T07:17:52;11.45;;;4.97;;
23119;SDS011;11729;50.836;4.330;2022-08-03T07:20:18;10.70;;;4.40;;
23119;SDS011;11729;50.836;4.330;2022-08-03T07:22:43;11.18;;;4.65;;
23119;SDS011;11729;50.836;4.330;2022-08-03T07:25:09;9.43;;;4.50;;
23119;SDS011;11729;50.836;4.330;2022-08-03T07:27:35;14.50;;;4.47;;
23119;SDS011;11729;50.836;4.330;2022-08-03T07:30:01;11.30;;;4.40;;
23119;SDS011;11729;50.836;4.330;2022-08-03T07:32:29;9.60;;;4.55;;
23119;SDS011;11729;50.836;4.330;2022-08-03T07:34:55;9.33;;;4.20;;
23119;SDS011;11729;50.836;4.330;2022-08-03T07:37:21;11.60;;;4.50;;
23119;SDS011;11729;50.836;4.330;2022-08-03T07:39:46;10.33;;;4.43;;
23119;SDS011;11729;50.836;4.330;2022-08-03T07:42:12;14.15;;;4.45;;
23119;SDS011;11729;50.836;4.330;2022-08-03T07:44:38;11.03;;;4.33;;
23119;SDS011;11729;50.836;4.330;2022-08-03T07:47:05;11.15;;;4.18;;
23119;SDS011;11729;50.836;4.330;2022-08-03T07:49:30;7.50;;;3.83;;
23119;SDS011;11729;50.836;4.330;2022-08-03T07:51:56;8.90;;;4.35;;
23119;SDS011;11729;50.836;4.330;2022-08-03T07:54:40;7.25;;;4.15;;
23119;SDS011;11729;50.836;4.330;2022-08-03T07:57:05;5.93;;;4.00;;
23119;SDS011;11729;50.836;4.330;2022-08-03T07:59:31;11.13;;;4.50;;
23119;SDS011;11729;50.836;4.330;2022-08-03T08:01:59;14.43;;;4.78;;
23119;SDS011;11729;50.836;4.330;2022-08-03T08:04:24;14.43;;;4.93;;
23119;SDS011;11729;50.836;4.330;2022-08-03T08:06:50;7.93;;;4.43;;
23119;SDS011;11729;50.836;4.330;2022-08-03T08:09:15;12.60;;;5.07;;
23119;SDS011;11729;50.836;4.330;2022-08-03T08:11:41;11.33;;;4.60;;
23119;SDS011;11729;50.836;4.330;2022-08-03T08:14:07;11.03;;;4.60;;
23119;SDS011;11729;50.836;4.330;2022-08-03T08:16:33;11.93;;;4.72;;
23119;SDS011;11729;50.836;4.330;2022-08-03T08:18:59;9.32;;;4.82;;
23119;SDS011;11729;50.836;4.330;2022-08-03T08:21:26;13.30;;;4.88;;
23119;SDS011;11729;50.836;4.330;2022-08-03T08:23:52;15.23;;;5.70;;
23119;SDS011;11729;50.836;4.330;2022-08-03T08:26:17;19.00;;;5.00;;
23119;SDS011;11729;50.836;4.330;2022-08-03T08:28:43;16.67;;;5.07;;
23119;SDS011;11729;50.836;4.330;2022-08-03T08:31:09;13.87;;;5.20;;
23119;SDS011;11729;50.836;4.330;2022-08-03T08:33:34;19.83;;;4.53;;
23119;SDS011;11729;50.836;4.330;2022-08-03T08:36:00;13.23;;;5.03;;
23119;SDS011;11729;50.836;4.330;2022-08-03T08:38:26;18.07;;;4.90;;
23119;SDS011;11729;50.836;4.330;2022-08-03T08:40:53;12.83;;;5.00;;
23119;SDS011;11729;50.836;4.330;2022-08-03T08:43:20;16.02;;;4.78;;
23119;SDS011;11729;50.836;4.330;2022-08-03T08:45:47;12.60;;;5.17;;
23119;SDS011;11729;50.836;4.330;2022-08-03T08:48:17;9.30;;;4.50;;
23119;SDS011;11729;50.836;4.330;2022-08-03T08:50:51;10.50;;;4.80;;
23119;SDS011;11729;50.836;4.330;2022-08-03T08:53:18;10.80;;;4.47;;
23119;SDS011;11729;50.836;4.330;2022-08-03T08:55:45;14.48;;;4.88;;
23119;SDS011;11729;50.836;4.330;2022-08-03T08:58:12;11.90;;;4.57;;
23119;SDS011;11729;50.836;4.330;2022-08-03T09:00:43;10.63;;;5.32;;
23119;SDS011;11729;50.836;4.330;2022-08-03T09:03:10;15.13;;;5.00;;
23119;SDS011;11729;50.836;4.330;2022-08-03T09:05:38;13.18;;;5.28;;
23119;SDS011;11729;50.836;4.330;2022-08-03T09:08:06;12.18;;;5.03;;
23119;SDS011;11729;50.836;4.330;2022-08-03T09:10:32;13.83;;;5.13;;
23119;SDS011;11729;50.836;4.330;2022-08-03T09:12:58;12.52;;;4.82;;
23119;SDS011;11729;50.836;4.330;2022-08-03T09:15:26;8.70;;;4.40;;
23119;SDS011;11729;50.836;4.330;2022-08-03T09:17:55;11.82;;;4.47;;
23119;SDS011;11729;50.836;4.330;2022-08-03T09:20:23;10.50;;;4.57;;
23119;SDS011;11729;50.836;4.330;2022-08-03T09:28:06;8.90;;;4.47;;
23119;SDS011;11729;50.836;4.330;2022-08-03T09:30:34;10.90;;;5.13;;
23119;SDS011;11729;50.836;4.330;2022-08-03T09:35:26;10.15;;;4.50;;
23119;SDS011;11729;50.836;4.330;2022-08-03T09:38:07;7.37;;;4.50;;
23119;SDS011;11729;50.836;4.330;2022-08-03T09:40:36;11.65;;;4.13;;
23119;SDS011;11729;50.836;4.330;2022-08-03T09:43:02;10.13;;;4.90;;
23119;SDS011;11729;50.836;4.330;2022-08-03T09:45:28;16.40;;;4.77;;
23119;SDS011;11729;50.836;4.330;2022-08-03T09:47:54;6.30;;;4.10;;
23119;SDS011;11729;50.836;4.330;2022-08-03T09:50:21;15.25;;;4.35;;
23119;SDS011;11729;50.836;4.330;2022-08-03T09:52:46;5.20;;;4.00;;
23119;SDS011;11729;50.836;4.330;2022-08-03T09:55:15;8.00;;;4.80;;
23119;SDS011;11729;50.836;4.330;2022-08-03T09:57:41;10.82;;;3.92;;
23119;SDS011;11729;50.836;4.330;2022-08-03T10:02:38;8.55;;;4.00;;
23119;SDS011;11729;50.836;4.330;2022-08-03T10:05:05;9.15;;;4.10;;
23119;SDS011;11729;50.836;4.330;2022-08-03T10:07:48;7.57;;;3.90;;
23119;SDS011;11729;50.836;4.330;2022-08-03T10:10:14;6.55;;;3.90;;
23119;SDS011;11729;50.836;4.330;2022-08-03T10:12:41;8.25;;;4.15;;
23119;SDS011;11729;50.836;4.330;2022-08-03T10:15:08;6.20;;;3.60;;
23119;SDS011;11729;50.836;4.330;2022-08-03T10:17:34;10.30;;;3.90;;
23119;SDS011;11729;50.836;4.330;2022-08-03T10:20:00;12.57;;;4.30;;
23119;SDS011;11729;50.836;4.330;2022-08-03T10:22:34;17.45;;;4.30;;
23119;SDS011;11729;50.836;4.330;2022-08-03T10:25:07;11.68;;;4.00;;
23119;SDS011;11729;50.836;4.330;2022-08-03T10:27:37;10.95;;;4.20;;
23119;SDS011;11729;50.836;4.330;2022-08-03T10:30:07;10.32;;;4.15;;
23119;SDS011;11729;50.836;4.330;2022-08-03T10:32:39;7.97;;;3.80;;
23119;SDS011;11729;50.836;4.330;2022-08-03T10:35:06;9.02;;;4.07;;
23119;SDS011;11729;50.836;4.330;2022-08-03T10:37:40;7.53;;;4.03;;
23119;SDS011;11729;50.836;4.330;2022-08-03T10:40:09;17.15;;;4.28;;
23119;SDS011;11729;50.836;4.330;2022-08-03T10:42:44;10.60;;;4.50;;
23119;SDS011;11729;50.836;4.330;2022-08-03T10:45:20;10.30;;;4.10;;
23119;SDS011;11729;50.836;4.330;2022-08-03T10:47:49;9.32;;;4.07;;
23119;SDS011;11729;50.836;4.330;2022-08-03T10:50:16;8.05;;;3.63;;
23119;SDS011;11729;50.836;4.330;2022-08-03T10:52:52;10.25;;;4.05;;
23119;SDS011;11729;50.836;4.330;2022-08-03T10:55:51;6.70;;;3.80;;
23119;SDS011;11729;50.836;4.330;2022-08-03T11:01:00;13.32;;;4.00;;
23119;SDS011;11729;50.836;4.330;2022-08-03T11:03:26;7.43;;;3.90;;
23119;SDS011;11729;50.836;4.330;2022-08-03T11:05:52;9.17;;;3.77;;
23119;SDS011;11729;50.836;4.330;2022-08-03T11:08:37;9.20;;;3.90;;
23119;SDS011;11729;50.836;4.330;2022-08-03T11:13:46;9.00;;;4.13;;
23119;SDS011;11729;50.836;4.330;2022-08-03T11:16:21;4.32;;;3.90;;
23119;SDS011;11729;50.836;4.330;2022-08-03T11:18:59;7.05;;;4.07;;
23119;SDS011;11729;50.836;4.330;2022-08-03T11:22:01;8.77;;;3.78;;
23119;SDS011;11729;50.836;4.330;2022-08-03T11:29:52;10.88;;;3.70;;
23119;SDS011;11729;50.836;4.330;2022-08-03T11:37:34;4.80;;;4.03;;
23119;SDS011;11729;50.836;4.330;2022-08-03T11:40:00;9.57;;;3.80;;
23119;SDS011;11729;50.836;4.330;2022-08-03T11:44:56;7.65;;;3.65;;
23119;SDS011;11729;50.836;4.330;2022-08-03T11:47:23;4.50;;;3.95;;
23119;SDS011;11729;50.836;4.330;2022-08-03T11:49:54;10.10;;;3.92;;
23119;SDS011;11729;50.836;4.330;2022-08-03T11:52:23;9.75;;;3.75;;
23119;SDS011;11729;50.836;4.330;2022-08-03T11:57:31;6.43;;;4.00;;
23119;SDS011;11729;50.836;4.330;2022-08-03T11:59:58;10.30;;;3.97;;
23119;SDS011;11729;50.836;4.330;2022-08-03T12:02:24;9.33;;;3.80;;
23119;SDS011;11729;50.836;4.330;2022-08-03T12:07:24;5.55;;;3.80;;
23119;SDS011;11729;50.836;4.330;2022-08-03T12:12:38;6.53;;;3.78;;
23119;SDS011;11729;50.836;4.330;2022-08-03T12:15:07;7.55;;;3.50;;
23119;SDS011;11729;50.836;4.330;2022-08-03T12:17:37;6.40;;;3.60;;
23119;SDS011;11729;50.836;4.330;2022-08-03T12:20:07;5.75;;;3.70;;
23119;SDS011;11729;50.836;4.330;2022-08-03T12:22:35;6.50;;;3.80;;
23119;SDS011;11729;50.836;4.330;2022-08-03T12:25:04;6.20;;;3.97;;
23119;SDS011;11729;50.836;4.330;2022-08-03T12:27:31;6.72;;;3.90;;
23119;SDS011;11729;50.836;4.330;2022-08-03T12:29:57;5.57;;;3.87;;
23119;SDS011;11729;50.836;4.330;2022-08-03T12:32:25;8.27;;;4.07;;
23119;SDS011;11729;50.836;4.330;2022-08-03T12:34:51;8.60;;;3.60;;
23119;SDS011;11729;50.836;4.330;2022-08-03T12:37:17;14.07;;;4.23;;
23119;SDS011;11729;50.836;4.330;2022-08-03T12:39:48;6.80;;;3.80;;
23119;SDS011;11729;50.836;4.330;2022-08-03T12:42:15;7.53;;;3.70;;
23119;SDS011;11729;50.836;4.330;2022-08-03T12:44:40;8.83;;;4.03;;
23119;SDS011;11729;50.836;4.330;2022-08-03T12:47:06;8.57;;;3.57;;
23119;SDS011;11729;50.836;4.330;2022-08-03T12:52:29;7.20;;;3.80;;
23119;SDS011;11729;50.836;4.330;2022-08-03T12:55:07;6.68;;;3.80;;
23119;SDS011;11729;50.836;4.330;2022-08-03T12:57:44;10.02;;;3.97;;
23119;SDS011;11729;50.836;4.330;2022-08-03T13:00:10;9.30;;;3.60;;
23119;SDS011;11729;50.836;4.330;2022-08-03T13:02:40;10.85;;;3.78;;
23119;SDS011;11729;50.836;4.330;2022-08-03T13:05:09;6.37;;;3.67;;
23119;SDS011;11729;50.836;4.330;2022-08-03T13:07:42;4.63;;;3.83;;
23119;SDS011;11729;50.836;4.330;2022-08-03T13:10:09;8.95;;;3.70;;
23119;SDS011;11729;50.836;4.330;2022-08-03T13:12:48;3.85;;;3.40;;
23119;SDS011;11729;50.836;4.330;2022-08-03T13:15:14;9.68;;;3.60;;
23119;SDS011;11729;50.836;4.330;2022-08-03T13:17:40;4.97;;;3.80;;
23119;SDS011;11729;50.836;4.330;2022-08-03T13:20:06;5.50;;;3.47;;
23119;SDS011;11729;50.836;4.330;2022-08-03T13:22:32;3.50;;;3.25;;
23119;SDS011;11729;50.836;4.330;2022-08-03T13:24:58;5.53;;;3.67;;
23119;SDS011;11729;50.836;4.330;2022-08-03T13:27:25;7.88;;;3.70;;
23119;SDS011;11729;50.836;4.330;2022-08-03T13:29:52;5.78;;;3.80;;
23119;SDS011;11729;50.836;4.330;2022-08-03T13:32:18;8.63;;;3.80;;
23119;SDS011;11729;50.836;4.330;2022-08-03T13:34:44;6.50;;;3.80;;
23119;SDS011;11729;50.836;4.330;2022-08-03T13:37:10;7.22;;;3.83;;
23119;SDS011;11729;50.836;4.330;2022-08-03T13:39:36;5.30;;;3.50;;
23119;SDS011;11729;50.836;4.330;2022-08-03T13:42:03;6.72;;;3.65;;
23119;SDS011;11729;50.836;4.330;2022-08-03T13:44:29;4.07;;;3.40;;
23119;SDS011;11729;50.836;4.330;2022-08-03T13:49:21;7.40;;;3.95;;
23119;SDS011;11729;50.836;4.330;2022-08-03T13:51:47;4.93;;;3.70;;
23119;SDS011;11729;50.836;4.330;2022-08-03T13:54:12;6.90;;;3.30;;
23119;SDS011;11729;50.836;4.330;2022-08-03T13:56:39;6.87;;;3.73;;
23119;SDS011;11729;50.836;4.330;2022-08-03T13:59:04;7.60;;;3.78;;
23119;SDS011;11729;50.836;4.330;2022-08-03T14:01:30;6.40;;;3.67;;
23119;SDS011;11729;50.836;4.330;2022-08-03T14:03:56;3.75;;;3.35;;
23119;SDS011;11729;50.836;4.330;2022-08-03T14:06:22;6.05;;;3.60;;
23119;SDS011;11729;50.836;4.330;2022-08-03T14:08:49;8.32;;;3.53;;
23119;SDS011;11729;50.836;4.330;2022-08-03T14:11:14;12.57;;;3.65;;
23119;SDS011;11729;50.836;4.330;2022-08-03T14:13:40;3.70;;;3.40;;
23119;SDS011;11729;50.836;4.330;2022-08-03T14:16:06;8.13;;;3.88;;
23119;SDS011;11729;50.836;4.330;2022-08-03T14:18:32;6.60;;;3.90;;
23119;SDS011;11729;50.836;4.330;2022-08-03T14:20:58;4.88;;;3.55;;
23119;SDS011;11729;50.836;4.330;2022-08-03T14:23:24;7.13;;;3.93;;
23119;SDS011;11729;50.836;4.330;2022-08-03T14:25:50;4.72;;;4.13;;
23119;SDS011;11729;50.836;4.330;2022-08-03T14:28:15;8.07;;;4.82;;
23119;SDS011;11729;50.836;4.330;2022-08-03T14:30:42;6.22;;;3.80;;
23119;SDS011;11729;50.836;4.330;2022-08-03T14:33:08;5.68;;;4.15;;
23119;SDS011;11729;50.836;4.330;2022-08-03T14:35:33;6.90;;;4.10;;
23119;SDS011;11729;50.836;4.330;2022-08-03T14:38:02;6.13;;;3.85;;
23119;SDS011;11729;50.836;4.330;2022-08-03T14:40:27;6.75;;;4.15;;
23119;SDS011;11729;50.836;4.330;2022-08-03T14:42:53;4.43;;;4.00;;
23119;SDS011;11729;50.836;4.330;2022-08-03T14:45:19;4.32;;;3.90;;
23119;SDS011;11729;50.836;4.330;2022-08-03T14:47:45;8.38;;;4.10;;
23119;SDS011;11729;50.836;4.330;2022-08-03T14:50:10;4.82;;;4.18;;
23119;SDS011;11729;50.836;4.330;2022-08-03T14:52:36;10.10;;;3.95;;
23119;SDS011;11729;50.836;4.330;2022-08-03T14:55:01;6.80;;;4.18;;
23119;SDS011;11729;50.836;4.330;2022-08-03T14:57:27;6.93;;;3.80;;
23119;SDS011;11729;50.836;4.330;2022-08-03T14:59:53;5.30;;;3.45;;
23119;SDS011;11729;50.836;4.330;2022-08-03T15:02:18;5.85;;;3.60;;
23119;SDS011;11729;50.836;4.330;2022-08-03T15:04:44;7.75;;;4.05;;
23119;SDS011;11729;50.836;4.330;2022-08-03T15:07:10;8.25;;;3.90;;
23119;SDS011;11729;50.836;4.330;2022-08-03T15:09:35;11.38;;;3.78;;
23119;SDS011;11729;50.836;4.330;2022-08-03T15:12:03;5.00;;;3.78;;
23119;SDS011;11729;50.836;4.330;2022-08-03T15:14:30;10.57;;;3.95;;
23119;SDS011;11729;50.836;4.330;2022-08-03T15:16:56;8.73;;;3.80;;
23119;SDS011;11729;50.836;4.330;2022-08-03T15:19:22;7.13;;;3.60;;
23119;SDS011;11729;50.836;4.330;2022-08-03T15:21:47;5.72;;;3.90;;
23119;SDS011;11729;50.836;4.330;2022-08-03T15:24:13;7.28;;;3.97;;
23119;SDS011;11729;50.836;4.330;2022-08-03T15:26:39;4.60;;;3.85;;
23119;SDS011;11729;50.836;4.330;2022-08-03T15:29:04;4.90;;;3.90;;
23119;SDS011;11729;50.836;4.330;2022-08-03T15:33:57;4.30;;;3.90;;
23119;SDS011;11729;50.836;4.330;2022-08-03T15:36:23;8.00;;;4.80;;
23119;SDS011;11729;50.836;4.330;2022-08-03T15:38:49;5.88;;;4.05;;